Hovedside
METAR-TAF:

METAR-TAF

Lufthavner :

Zagreb lufthavn

Zagreb, Kroatia

breddegrad: 45-44N, lengdegrad: 016-04E, høyde over havet: 106 m

Gjeldene værobservasjon

Denne rapporten ble laget for 21 minutter siden, klokken 17:30 UTC
Vind 4 kt fra Sørøst, skiftende mellom Øst-sørøst og Sør-sørvest
Temperatur 19°C
Luftfuktighet 52%
Trykk 1019 hPa
Sikt 10 km eller mer
ingen skyer under 1500 m og ingen bygeskyer

METAR: LDZA 231730Z 14004KT 110V200 CAVOK 19/09 Q1019 NOSIG

Tid: 19:51 (17:51 UTC)

Varsel

Denne rapporten ble laget for 26 minutter siden, klokken 17:25 UTC
Varsel gyldig fra 23. klokken 18 UTC til 24. klokken 18 UTC
Vind 5 kt fra Nordøst
Sikt 10 km eller mer
Spredte skyer i en høyde av 3000 ft

TAF: LDZA 231725Z 2318/2418 05005KT 9999 SCT030 TX21/2414Z TN10/2403Z

Værobservasjoner og værvarsel for over 4000 flyplasser (METAR- og TAF-rapporter).

Tilgjengelige stasjoner er representert av de røde og gule prikkene på kartet.

Hold musepekeren over prikken for å se navnet på stasjonen.

Klikk så for å se værobservasjoner og -varsler.

For å forandre kartet kan du klikke på den grønne knappen med svart kryss for å zoome inn, på den grønne knappen med strek for å zoome ut, eller på de grønne pilene for å se tilstøtende kart.


METAR-TAF: